Time;durP1;ratioP1;P1;durP2;ratioP2;P2;SDS_P1;SDS_P2;PMS_P1;PMS_P2;Temp;Humidity;BMP_temperature;BMP_pressure;BME280_temperature;BME280_humidity;BME280_pressure;Samples;Min_cycle;Max_cycle;Signal;HPM_P1;HPM_P2
2024/01/22 00:00:59;;;;;;;50.88;33.78;;;26.70;99.90;;;;;;5031316;28;20059;-69
2024/01/22 00:03:26;;;;;;;40.17;26.45;;;26.80;99.90;;;;;;5033717;28;20606;-67
2024/01/22 00:05:52;;;;;;;42.53;27.33;;;26.80;99.90;;;;;;5034251;28;20079;-68
2024/01/22 00:08:20;;;;;;;41.90;25.92;;;26.80;99.90;;;;;;5034351;28;20024;-70
2024/01/22 00:10:46;;;;;;;121.78;63.63;;;26.80;99.90;;;;;;5033550;28;20401;-68
2024/01/22 00:13:13;;;;;;;42.88;26.60;;;26.70;99.90;;;;;;5034109;28;20037;-66
2024/01/22 00:15:39;;;;;;;43.95;27.40;;;26.70;99.90;;;;;;5034328;28;20045;-68
2024/01/22 00:18:06;;;;;;;36.70;26.45;;;26.80;99.90;;;;;;5024834;28;20013;-68
2024/01/22 00:20:32;;;;;;;83.97;47.05;;;26.80;99.90;;;;;;5025119;28;20029;-69
2024/01/22 00:22:59;;;;;;;47.17;28.92;;;26.80;99.90;;;;;;5023632;28;20065;-69
2024/01/22 00:25:25;;;;;;;47.90;31.58;;;26.80;99.90;;;;;;5024237;28;20029;-68
2024/01/22 00:27:52;;;;;;;47.72;31.15;;;26.80;99.90;;;;;;5025191;28;20030;-68
2024/01/22 00:30:18;;;;;;;51.60;32.03;;;26.80;99.90;;;;;;5031318;28;20180;-68
2024/01/22 00:32:44;;;;;;;54.25;38.97;;;26.90;99.90;;;;;;5034046;28;20013;-69
2024/01/22 00:35:11;;;;;;;58.28;36.65;;;26.90;99.90;;;;;;5023247;28;20414;-69
2024/01/22 00:37:37;;;;;;;48.20;33.40;;;26.90;99.90;;;;;;5031023;28;20037;-68
2024/01/22 00:40:04;;;;;;;58.22;37.55;;;26.90;99.90;;;;;;5034137;28;20099;-69
2024/01/22 00:42:31;;;;;;;48.72;30.38;;;27.00;99.90;;;;;;5034047;28;20390;-66
2024/01/22 00:44:57;;;;;;;37.90;26.42;;;27.00;99.90;;;;;;5033913;28;20025;-66
2024/01/22 00:47:24;;;;;;;43.85;28.60;;;27.00;99.90;;;;;;5034219;28;20014;-67
2024/01/22 00:49:50;;;;;;;38.40;26.85;;;27.00;99.90;;;;;;5033880;28;20030;-66
2024/01/22 00:52:17;;;;;;;44.53;28.05;;;27.00;99.90;;;;;;5033733;28;20022;-67
2024/01/22 00:54:43;;;;;;;47.65;29.02;;;27.10;99.90;;;;;;5033817;28;20475;-69
2024/01/22 00:57:10;;;;;;;41.17;29.45;;;27.10;99.90;;;;;;5032844;28;20025;-67
2024/01/22 00:59:37;;;;;;;49.30;30.63;;;27.10;99.90;;;;;;5033908;28;20040;-66
2024/01/22 01:02:04;;;;;;;45.08;29.02;;;27.20;99.90;;;;;;5034019;28;20498;-67
2024/01/22 01:04:31;;;;;;;42.10;29.45;;;27.10;99.90;;;;;;5032606;28;20116;-68
2024/01/22 01:06:57;;;;;;;49.15;35.20;;;27.20;99.90;;;;;;5033387;28;20026;-67
2024/01/22 01:09:24;;;;;;;44.65;31.05;;;27.20;99.90;;;;;;5033551;28;20422;-68
2024/01/22 01:11:50;;;;;;;50.53;33.60;;;27.30;99.90;;;;;;5033744;28;20028;-68
2024/01/22 01:14:16;;;;;;;48.83;31.00;;;27.30;99.90;;;;;;5033791;28;20052;-68
2024/01/22 01:16:43;;;;;;;66.40;40.38;;;27.40;99.90;;;;;;5033764;28;20052;-68
2024/01/22 01:19:09;;;;;;;51.67;33.10;;;27.50;99.90;;;;;;5033689;28;20021;-68
2024/01/22 01:21:38;;;;;;;42.15;30.00;;;27.50;99.90;;;;;;5033596;28;20417;-68
2024/01/22 01:24:05;;;;;;;49.05;28.75;;;27.60;99.90;;;;;;5033679;28;20040;-69
2024/01/22 01:26:32;;;;;;;44.20;28.63;;;27.60;99.90;;;;;;5033562;28;20033;-68
2024/01/22 01:28:58;;;;;;;36.13;26.02;;;27.70;99.90;;;;;;5033347;28;20043;-69
2024/01/22 01:31:28;;;;;;;53.50;37.80;;;27.70;99.90;;;;;;5033864;28;20075;-69
2024/01/22 01:33:55;;;;;;;53.80;34.38;;;27.80;99.90;;;;;;5033492;28;20033;-68
2024/01/22 01:36:21;;;;;;;47.42;29.52;;;27.80;99.90;;;;;;5033589;28;20067;-67
2024/01/22 01:38:48;;;;;;;36.75;23.45;;;27.90;99.90;;;;;;5033549;28;20025;-68
2024/01/22 01:41:14;;;;;;;51.88;34.88;;;27.90;99.90;;;;;;5033643;28;20390;-67
2024/01/22 01:43:40;;;;;;;45.10;28.15;;;28.00;99.90;;;;;;5033431;28;20033;-68
2024/01/22 01:46:07;;;;;;;46.10;26.88;;;28.00;99.90;;;;;;5033567;28;20433;-65
2024/01/22 01:48:34;;;;;;;81.53;44.70;;;28.00;99.90;;;;;;5033461;28;20075;-66
2024/01/22 01:51:01;;;;;;;71.00;41.38;;;28.10;99.90;;;;;;5033425;28;20540;-67
2024/01/22 01:53:29;;;;;;;112.57;66.65;;;28.10;99.90;;;;;;5033462;28;20053;-67
2024/01/22 01:55:57;;;;;;;63.13;39.50;;;28.10;99.90;;;;;;5020899;28;20494;-66
2024/01/22 01:58:24;;;;;;;45.08;28.67;;;28.10;99.90;;;;;;5014770;28;20030;-67
2024/01/22 02:00:54;;;;;;;117.38;70.35;;;28.20;99.90;;;;;;5015911;28;20278;-67
2024/01/22 02:03:21;;;;;;;52.85;32.50;;;28.20;99.90;;;;;;5026921;28;20079;-67
2024/01/22 02:05:47;;;;;;;39.28;24.35;;;28.30;99.90;;;;;;5033031;28;20544;-66
2024/01/22 02:08:14;;;;;;;33.50;22.77;;;28.30;99.90;;;;;;5032454;28;20048;-67
2024/01/22 02:10:40;;;;;;;37.30;23.42;;;28.30;99.90;;;;;;5031951;28;20026;-67
2024/01/22 02:13:09;;;;;;;37.03;23.75;;;28.40;99.90;;;;;;5036940;28;20060;-66
2024/01/22 02:15:35;;;;;;;35.15;23.95;;;28.30;99.90;;;;;;5037175;28;20499;-67
2024/01/22 02:18:02;;;;;;;34.25;21.50;;;28.30;99.90;;;;;;5037104;28;20029;-66
2024/01/22 02:20:30;;;;;;;40.30;25.75;;;28.40;99.90;;;;;;5036811;28;20033;-66
2024/01/22 02:23:03;;;;;;;36.92;26.92;;;28.50;99.90;;;;;;5033732;28;20084;-67
2024/01/22 02:25:30;;;;;;;34.22;23.60;;;28.50;99.90;;;;;;5036396;28;20017;-67
2024/01/22 02:27:56;;;;;;;39.13;24.23;;;28.60;99.90;;;;;;5036171;28;20034;-67
2024/01/22 02:30:23;;;;;;;32.80;23.17;;;28.70;99.90;;;;;;5036313;28;20034;-67
2024/01/22 02:32:49;;;;;;;37.53;23.48;;;28.70;99.90;;;;;;5025383;28;20467;-67
2024/01/22 02:35:17;;;;;;;32.20;22.30;;;28.80;99.90;;;;;;5036118;28;20101;-66
2024/01/22 02:37:44;;;;;;;30.70;23.05;;;28.90;99.90;;;;;;5036297;28;20156;-67
2024/01/22 02:40:11;;;;;;;37.40;23.25;;;28.90;99.90;;;;;;5033011;28;20501;-67
2024/01/22 02:42:37;;;;;;;38.80;23.33;;;28.90;99.90;;;;;;5035919;28;20028;-67
2024/01/22 02:45:05;;;;;;;32.20;23.52;;;28.90;99.90;;;;;;5035802;28;20014;-66
2024/01/22 02:47:31;;;;;;;34.05;23.42;;;28.90;99.90;;;;;;5036121;28;20402;-67
2024/01/22 02:49:58;;;;;;;39.05;25.17;;;28.90;99.90;;;;;;5033195;28;20076;-64
2024/01/22 02:52:24;;;;;;;52.10;31.70;;;28.90;99.90;;;;;;5033784;28;20084;-66
2024/01/22 02:54:51;;;;;;;43.25;24.80;;;29.10;99.90;;;;;;5035945;28;20013;-67
2024/01/22 02:57:20;;;;;;;40.00;24.35;;;29.10;99.90;;;;;;5036100;28;20021;-66
2024/01/22 02:59:46;;;;;;;33.65;24.80;;;29.10;99.90;;;;;;5033294;28;20018;-66
2024/01/22 03:02:13;;;;;;;36.97;24.55;;;29.20;99.90;;;;;;5036194;28;20028;-65
2024/01/22 03:04:39;;;;;;;39.30;25.58;;;29.20;99.90;;;;;;5025040;28;20034;-66
2024/01/22 03:07:06;;;;;;;37.08;23.52;;;29.30;99.90;;;;;;5026815;28;20028;-65
2024/01/22 03:09:32;;;;;;;32.80;21.05;;;29.20;99.90;;;;;;5025642;28;20095;-67
2024/01/22 03:11:59;;;;;;;35.97;22.95;;;29.20;99.90;;;;;;5025256;28;20013;-67
2024/01/22 03:14:25;;;;;;;29.42;22.35;;;29.20;99.90;;;;;;5026719;28;20013;-70
2024/01/22 03:16:52;;;;;;;39.15;25.83;;;29.30;99.90;;;;;;5025412;28;20037;-65
2024/01/22 03:19:18;;;;;;;31.23;22.60;;;29.40;99.90;;;;;;5034738;28;20017;-67
2024/01/22 03:21:45;;;;;;;39.67;24.33;;;29.40;99.90;;;;;;5033586;28;20024;-67
2024/01/22 03:24:12;;;;;;;38.67;26.50;;;29.40;99.90;;;;;;5035324;28;20025;-68
2024/01/22 03:26:38;;;;;;;34.05;23.25;;;29.40;99.90;;;;;;5035492;28;20017;-68
2024/01/22 03:29:05;;;;;;;38.50;25.23;;;29.50;99.90;;;;;;5024003;28;20121;-67
2024/01/22 03:31:32;;;;;;;42.70;24.77;;;29.50;99.90;;;;;;5035423;28;20017;-66
2024/01/22 03:33:59;;;;;;;35.15;24.75;;;29.60;99.90;;;;;;5035239;28;20088;-67
2024/01/22 03:36:26;;;;;;;37.70;26.38;;;29.70;99.90;;;;;;5027678;28;20041;-67
2024/01/22 03:38:52;;;;;;;39.80;26.23;;;29.70;99.90;;;;;;5032995;28;20479;-67
2024/01/22 03:41:19;;;;;;;36.67;26.23;;;29.70;99.90;;;;;;5025306;28;20021;-67
2024/01/22 03:43:45;;;;;;;35.38;25.83;;;29.60;99.90;;;;;;5026005;28;20109;-66
2024/01/22 03:46:13;;;;;;;35.70;27.33;;;29.70;99.90;;;;;;5032430;28;20022;-66
2024/01/22 03:48:40;;;;;;;42.28;30.13;;;29.60;99.90;;;;;;5034916;28;20497;-67
2024/01/22 03:51:07;;;;;;;39.72;30.58;;;29.70;99.90;;;;;;5032554;28;20025;-67
2024/01/22 03:53:34;;;;;;;43.60;32.53;;;29.70;99.90;;;;;;5035043;28;20092;-65
2024/01/22 03:56:04;;;;;;;42.92;29.75;;;29.70;99.90;;;;;;5034724;28;20026;-65
2024/01/22 03:58:32;;;;;;;42.35;30.02;;;29.60;99.90;;;;;;5023818;28;20021;-66
2024/01/22 04:01:00;;;;;;;48.45;29.88;;;29.60;99.90;;;;;;5034846;28;20067;-66
2024/01/22 04:03:26;;;;;;;41.95;28.50;;;29.60;99.90;;;;;;5034920;28;20025;-65
2024/01/22 04:05:53;;;;;;;36.95;23.13;;;29.70;99.90;;;;;;5032169;28;20025;-68
2024/01/22 04:08:19;;;;;;;31.45;22.10;;;29.70;99.90;;;;;;5035109;28;20359;-65
2024/01/22 04:10:46;;;;;;;30.10;21.10;;;29.70;99.90;;;;;;5034191;28;20029;-67
2024/01/22 04:13:13;;;;;;;42.00;28.75;;;29.80;99.90;;;;;;5034666;28;20491;-66
2024/01/22 04:15:39;;;;;;;44.05;27.23;;;29.80;99.90;;;;;;5034669;28;20025;-66
2024/01/22 04:18:06;;;;;;;33.17;23.15;;;29.90;99.90;;;;;;5024041;28;20029;-67
2024/01/22 04:20:33;;;;;;;44.25;25.50;;;30.00;99.90;;;;;;5031684;28;20025;-66
2024/01/22 04:22:59;;;;;;;31.33;21.35;;;30.10;99.90;;;;;;5034534;28;20021;-67
2024/01/22 04:25:26;;;;;;;31.63;21.60;;;30.20;99.90;;;;;;5023715;28;20017;-68
2024/01/22 04:27:54;;;;;;;30.65;20.27;;;30.30;99.90;;;;;;5031450;28;20446;-64
2024/01/22 04:30:21;;;;;;;31.25;21.75;;;30.40;99.90;;;;;;5034078;28;20037;-66
2024/01/22 04:32:48;;;;;;;38.20;21.73;;;30.40;99.90;;;;;;5023201;28;20032;-65
2024/01/22 04:35:14;;;;;;;28.17;19.48;;;30.40;99.90;;;;;;5034024;28;20112;-66
2024/01/22 04:37:41;;;;;;;31.63;19.25;;;30.50;99.90;;;;;;5034276;28;20029;-67
2024/01/22 04:40:10;;;;;;;23.27;17.17;;;30.60;99.90;;;;;;5031357;28;20059;-66
2024/01/22 04:42:36;;;;;;;24.60;15.88;;;30.70;99.90;;;;;;5031782;28;20017;-67
2024/01/22 04:45:03;;;;;;;24.50;18.40;;;30.70;99.90;;;;;;5032647;28;20479;-66
2024/01/22 04:47:30;;;;;;;57.38;31.60;;;30.80;99.90;;;;;;5033410;28;20067;-66
2024/01/22 04:49:56;;;;;;;28.15;18.67;;;30.90;99.90;;;;;;5016225;28;20026;-65
2024/01/22 04:52:22;;;;;;;24.90;17.98;;;30.90;99.90;;;;;;5027413;28;20553;-66
2024/01/22 04:54:49;;;;;;;23.80;17.27;;;30.90;99.90;;;;;;5033325;28;20044;-66
2024/01/22 04:57:15;;;;;;;26.65;17.75;;;31.00;99.90;;;;;;5033258;28;20032;-66
2024/01/22 04:59:42;;;;;;;20.90;16.35;;;31.00;99.90;;;;;;5033465;28;20520;-67
2024/01/22 05:02:08;;;;;;;25.48;17.52;;;31.10;99.90;;;;;;5033081;28;20393;-68
2024/01/22 05:04:35;;;;;;;23.73;15.52;;;31.20;99.90;;;;;;5034034;28;20355;-67
2024/01/22 05:07:02;;;;;;;27.02;18.08;;;31.30;99.90;;;;;;5024337;28;20044;-67
2024/01/22 05:09:28;;;;;;;28.90;16.38;;;31.40;99.90;;;;;;5024493;28;20033;-67
2024/01/22 05:11:54;;;;;;;22.70;15.40;;;31.50;99.90;;;;;;5022920;28;20029;-67
2024/01/22 05:14:21;;;;;;;22.00;15.98;;;31.60;99.90;;;;;;5033446;28;20471;-68
2024/01/22 05:16:48;;;;;;;19.83;14.68;;;31.60;99.90;;;;;;5033557;28;20184;-68
2024/01/22 05:19:14;;;;;;;20.55;14.82;;;31.70;99.90;;;;;;5030813;28;20045;-67
2024/01/22 05:21:41;;;;;;;31.08;20.30;;;31.70;99.90;;;;;;5031933;28;20363;-66
2024/01/22 05:24:08;;;;;;;27.75;18.58;;;31.70;99.90;;;;;;5033287;28;20033;-67
2024/01/22 05:26:34;;;;;;;22.60;16.25;;;31.70;99.90;;;;;;5031117;28;20025;-67
2024/01/22 05:29:01;;;;;;;26.08;18.83;;;31.70;99.90;;;;;;5033138;28;20064;-67
2024/01/22 05:31:27;;;;;;;24.50;15.95;;;31.90;99.90;;;;;;5022875;28;20017;-67
2024/01/22 05:33:53;;;;;;;24.45;16.77;;;32.00;99.90;;;;;;5030542;28;20048;-67
2024/01/22 05:36:20;;;;;;;29.67;19.23;;;32.00;99.90;;;;;;5033097;28;20021;-67
2024/01/22 05:38:46;;;;;;;26.55;18.63;;;32.10;99.90;;;;;;5033193;28;20033;-67
2024/01/22 05:41:13;;;;;;;19.90;14.82;;;32.20;99.90;;;;;;5033086;28;20029;-67
2024/01/22 05:43:39;;;;;;;22.25;15.23;;;32.30;99.90;;;;;;5032714;28;20018;-66
2024/01/22 05:46:06;;;;;;;18.02;12.45;;;32.30;99.90;;;;;;5032992;28;20471;-67
2024/01/22 05:48:34;;;;;;;18.90;12.23;;;32.20;99.90;;;;;;5032964;28;20039;-68
2024/01/22 05:51:01;;;;;;;21.15;14.32;;;32.30;99.90;;;;;;5033178;28;20010;-66
2024/01/22 05:53:27;;;;;;;17.00;13.65;;;32.40;99.90;;;;;;5032929;28;20026;-68
2024/01/22 05:55:54;;;;;;;21.13;14.25;;;32.40;99.90;;;;;;5033646;28;20057;-68
2024/01/22 05:58:20;;;;;;;23.08;15.98;;;32.40;99.90;;;;;;5030725;28;20025;-65
2024/01/22 06:00:47;;;;;;;22.42;15.32;;;32.50;99.90;;;;;;5034049;28;20037;-67
2024/01/22 06:03:13;;;;;;;16.15;12.10;;;32.50;99.90;;;;;;5031586;28;20030;-66
2024/01/22 06:05:40;;;;;;;15.20;11.35;;;32.60;99.90;;;;;;5034576;28;20036;-67
2024/01/22 06:08:06;;;;;;;16.80;11.85;;;32.60;99.90;;;;;;5033843;28;20107;-67
2024/01/22 06:10:34;;;;;;;21.30;12.05;;;32.60;99.90;;;;;;5023803;28;20025;-66
2024/01/22 06:13:01;;;;;;;15.85;11.93;;;32.60;99.90;;;;;;5031795;28;20109;-67
2024/01/22 06:15:28;;;;;;;17.50;11.90;;;32.70;99.90;;;;;;5033880;28;20433;-67
2024/01/22 06:17:54;;;;;;;16.45;12.43;;;32.60;99.90;;;;;;5026950;28;20047;-69
2024/01/22 06:20:20;;;;;;;16.00;10.90;;;32.60;99.90;;;;;;5022910;28;20076;-67
2024/01/22 06:22:47;;;;;;;16.83;11.90;;;32.60;99.90;;;;;;5023410;28;20021;-67
2024/01/22 06:25:14;;;;;;;15.85;12.07;;;32.70;99.90;;;;;;5021929;28;20467;-67
2024/01/22 06:27:44;;;;;;;19.75;11.52;;;32.80;99.90;;;;;;5023549;28;20463;-66
2024/01/22 06:30:12;;;;;;;16.38;11.40;;;32.80;99.90;;;;;;5020777;28;20310;-67
2024/01/22 06:32:39;;;;;;;14.52;10.55;;;32.80;99.90;;;;;;5032467;28;20021;-66
2024/01/22 06:35:06;;;;;;;16.38;12.57;;;32.90;99.90;;;;;;5032624;28;20025;-66
2024/01/22 06:37:34;;;;;;;16.00;11.13;;;33.10;99.90;;;;;;5031937;28;20049;-63
2024/01/22 06:40:00;;;;;;;15.95;11.43;;;33.10;99.90;;;;;;5032475;28;20029;-63
2024/01/22 06:42:29;;;;;;;23.23;12.18;;;33.00;99.90;;;;;;5032384;28;20033;-66
2024/01/22 06:44:55;;;;;;;22.65;13.65;;;33.00;99.90;;;;;;5032611;28;20083;-67
2024/01/22 06:47:22;;;;;;;15.38;10.90;;;33.10;99.90;;;;;;5030155;28;20127;-67
2024/01/22 06:49:48;;;;;;;15.43;10.55;;;33.20;99.90;;;;;;5031546;28;20104;-66
2024/01/22 06:52:14;;;;;;;12.55;9.80;;;33.40;99.90;;;;;;5031796;28;20467;-66
2024/01/22 06:54:41;;;;;;;16.20;10.07;;;33.30;99.90;;;;;;5029441;28;20546;-66
2024/01/22 06:57:07;;;;;;;16.85;10.13;;;33.40;99.90;;;;;;5034116;28;20025;-67
2024/01/22 06:59:34;;;;;;;13.65;9.93;;;33.40;99.90;;;;;;5032246;28;20671;-66
2024/01/22 07:02:01;;;;;;;15.27;9.57;;;33.50;99.90;;;;;;5034964;28;20021;-65
2024/01/22 07:04:28;;;;;;;13.57;9.77;;;33.40;99.90;;;;;;5035384;28;20025;-66
2024/01/22 07:06:56;;;;;;;16.30;10.45;;;33.50;99.90;;;;;;5035239;28;20049;-68
2024/01/22 07:09:23;;;;;;;15.82;10.70;;;33.50;99.90;;;;;;5031620;28;20109;-67
2024/01/22 07:11:50;;;;;;;11.68;9.20;;;33.70;99.90;;;;;;5035019;28;20038;-66
2024/01/22 07:14:17;;;;;;;15.80;10.82;;;33.80;99.90;;;;;;5035512;28;20052;-66
2024/01/22 07:16:43;;;;;;;13.60;8.30;;;33.90;99.90;;;;;;5035715;28;20107;-66
2024/01/22 07:19:10;;;;;;;14.00;9.25;;;34.00;99.90;;;;;;5035654;28;20026;-67
2024/01/22 07:21:36;;;;;;;11.45;8.70;;;33.90;99.90;;;;;;5035752;28;20029;-66
2024/01/22 07:24:03;;;;;;;14.45;10.13;;;34.00;99.90;;;;;;5035567;28;20108;-67
2024/01/22 07:26:29;;;;;;;12.07;9.35;;;34.00;99.90;;;;;;5035717;28;20029;-66
2024/01/22 07:28:56;;;;;;;14.23;10.18;;;34.00;99.90;;;;;;5035081;28;20466;-66
2024/01/22 07:31:24;;;;;;;15.55;11.02;;;34.00;99.90;;;;;;5035358;28;20032;-67
2024/01/22 07:33:50;;;;;;;12.82;9.95;;;33.90;99.90;;;;;;5034564;28;20516;-67
2024/01/22 07:36:17;;;;;;;17.45;11.23;;;33.90;99.90;;;;;;5035173;28;20437;-68
2024/01/22 07:38:45;;;;;;;14.73;10.45;;;33.80;99.90;;;;;;5035207;28;20034;-67
2024/01/22 07:41:11;;;;;;;15.88;10.98;;;33.90;99.90;;;;;;5035192;28;20033;-67
2024/01/22 07:43:38;;;;;;;14.32;10.55;;;34.00;99.90;;;;;;5035098;28;20028;-67
2024/01/22 07:46:04;;;;;;;14.10;10.30;;;34.00;99.90;;;;;;5035082;28;20394;-67
2024/01/22 07:48:31;;;;;;;13.38;10.25;;;34.10;99.90;;;;;;5034994;28;20056;-67
2024/01/22 07:50:57;;;;;;;13.60;9.85;;;34.10;99.90;;;;;;5035093;28;20029;-67
2024/01/22 07:53:23;;;;;;;19.50;11.10;;;34.20;99.90;;;;;;5035082;28;20032;-68
2024/01/22 07:55:50;;;;;;;14.55;11.55;;;34.10;99.90;;;;;;5035006;28;20025;-67
2024/01/22 07:58:17;;;;;;;16.33;10.60;;;34.10;99.90;;;;;;5034947;28;20029;-67
2024/01/22 08:00:44;;;;;;;15.30;10.77;;;34.00;99.90;;;;;;5034891;28;20022;-68
2024/01/22 08:03:10;;;;;;;15.43;9.77;;;34.00;99.90;;;;;;5034878;28;20101;-68
2024/01/22 08:05:37;;;;;;;16.27;10.75;;;34.00;99.90;;;;;;5034427;28;20029;-68
2024/01/22 08:08:04;;;;;;;15.10;11.05;;;33.90;99.90;;;;;;5034715;28;20562;-67
2024/01/22 08:10:30;;;;;;;15.68;10.55;;;34.00;99.90;;;;;;5034645;28;20390;-68
2024/01/22 08:12:57;;;;;;;12.80;9.70;;;34.10;99.90;;;;;;5034568;28;20036;-70
2024/01/22 08:15:23;;;;;;;19.08;12.38;;;34.10;99.90;;;;;;5034397;28;20025;-69
2024/01/22 08:17:50;;;;;;;17.92;11.05;;;34.30;99.90;;;;;;5034542;28;20022;-69
2024/01/22 08:20:17;;;;;;;19.75;13.40;;;34.30;99.90;;;;;;5034724;28;20049;-69
2024/01/22 08:22:44;;;;;;;21.77;15.15;;;34.20;99.90;;;;;;5034250;28;20033;-68
2024/01/22 08:25:10;;;;;;;15.27;10.77;;;34.20;99.90;;;;;;5034253;28;20031;-68
2024/01/22 08:27:40;;;;;;;14.07;9.27;;;34.10;99.90;;;;;;5034242;28;20044;-68
2024/01/22 08:30:07;;;;;;;20.30;11.73;;;34.10;99.90;;;;;;5030882;28;20050;-68
2024/01/22 08:32:34;;;;;;;17.27;10.73;;;34.10;99.90;;;;;;5031523;28;20018;-68
2024/01/22 08:35:00;;;;;;;15.50;10.73;;;34.10;99.90;;;;;;5033871;28;20017;-68
2024/01/22 08:37:27;;;;;;;14.30;9.35;;;34.20;99.90;;;;;;5033578;28;20099;-68
2024/01/22 08:39:53;;;;;;;16.15;10.82;;;34.30;99.90;;;;;;5031226;28;20052;-68
2024/01/22 08:42:20;;;;;;;17.05;11.05;;;34.40;99.90;;;;;;5033745;28;20466;-69
2024/01/22 08:44:46;;;;;;;13.25;10.40;;;34.40;99.90;;;;;;5023228;28;20446;-68
2024/01/22 08:47:12;;;;;;;19.25;11.00;;;34.40;99.90;;;;;;5031076;28;20051;-68
2024/01/22 08:49:39;;;;;;;14.20;9.95;;;34.40;99.90;;;;;;5033690;28;20021;-68
2024/01/22 08:52:06;;;;;;;13.18;9.68;;;34.40;99.90;;;;;;5033511;28;20021;-68
2024/01/22 08:54:32;;;;;;;20.65;12.82;;;34.40;99.90;;;;;;5033412;28;20020;-70
2024/01/22 08:56:58;;;;;;;16.90;11.88;;;34.40;99.90;;;;;;5033593;28;20017;-67
2024/01/22 08:59:25;;;;;;;18.15;10.25;;;34.30;99.90;;;;;;5033714;28;20028;-67
2024/01/22 09:01:52;;;;;;;17.20;10.32;;;34.30;99.90;;;;;;5033728;28;20036;-67
2024/01/22 09:04:19;;;;;;;16.75;10.40;;;34.30;99.90;;;;;;5033819;28;20018;-67
2024/01/22 09:06:45;;;;;;;21.67;11.48;;;34.30;99.90;;;;;;5032812;28;20052;-68
2024/01/22 09:09:12;;;;;;;19.35;11.90;;;34.20;99.90;;;;;;5032606;28;20120;-69
2024/01/22 09:11:38;;;;;;;15.98;12.10;;;34.20;99.90;;;;;;5024581;28;20043;-67
2024/01/22 09:14:05;;;;;;;18.33;11.52;;;34.20;99.90;;;;;;5022211;28;20044;-68
2024/01/22 09:16:31;;;;;;;18.60;11.60;;;34.20;99.90;;;;;;5033022;28;20018;-67
2024/01/22 09:18:57;;;;;;;19.13;11.80;;;34.20;99.90;;;;;;5032563;28;20022;-67
2024/01/22 09:21:24;;;;;;;16.67;11.73;;;34.20;99.90;;;;;;5022213;28;20033;-67
2024/01/22 09:23:51;;;;;;;16.52;11.25;;;34.20;99.90;;;;;;5032850;28;20022;-68
2024/01/22 09:26:17;;;;;;;16.17;11.98;;;34.20;99.90;;;;;;5032958;28;20609;-67
2024/01/22 09:28:44;;;;;;;15.32;11.70;;;34.30;99.90;;;;;;5021941;28;20121;-67
2024/01/22 09:31:10;;;;;;;15.75;11.45;;;34.30;99.90;;;;;;5030337;28;20018;-68
2024/01/22 09:33:37;;;;;;;14.57;10.85;;;34.30;99.90;;;;;;5032932;28;20502;-69
2024/01/22 09:36:04;;;;;;;19.95;12.82;;;34.30;99.90;;;;;;5032451;28;20100;-68
2024/01/22 09:38:31;;;;;;;17.67;11.52;;;34.20;99.90;;;;;;5030310;28;20021;-67
2024/01/22 09:40:58;;;;;;;20.23;12.82;;;34.20;99.90;;;;;;5032922;28;20109;-68
2024/01/22 09:43:24;;;;;;;14.93;10.80;;;34.20;99.90;;;;;;5021862;28;20048;-68
2024/01/22 09:45:51;;;;;;;15.00;10.32;;;34.10;99.90;;;;;;5032714;28;20021;-68
2024/01/22 09:48:18;;;;;;;19.45;10.52;;;34.10;99.90;;;;;;5032665;28;20045;-68
2024/01/22 09:50:51;;;;;;;20.48;12.85;;;34.10;99.90;;;;;;5021781;28;20108;-68
2024/01/22 09:53:19;;;;;;;17.10;10.98;;;34.10;99.90;;;;;;5032132;28;20041;-68
2024/01/22 09:55:47;;;;;;;20.02;11.48;;;34.10;99.90;;;;;;5032757;28;20048;-67
2024/01/22 09:58:21;;;;;;;22.45;11.65;;;34.00;99.90;;;;;;5032846;28;20026;-69
2024/01/22 10:00:48;;;;;;;18.40;12.90;;;34.00;99.90;;;;;;5032230;28;20021;-69
2024/01/22 10:03:15;;;;;;;25.33;14.65;;;33.90;99.90;;;;;;5032286;28;20013;-66
2024/01/22 10:05:43;;;;;;;50.20;30.13;;;34.00;99.90;;;;;;5031520;28;20097;-66
2024/01/22 10:08:09;;;;;;;45.22;26.33;;;34.00;99.90;;;;;;5031485;28;20041;-67
2024/01/22 10:10:37;;;;;;;33.10;19.70;;;33.90;99.90;;;;;;5030557;28;20029;-68
2024/01/22 10:13:07;;;;;;;31.55;20.05;;;33.90;99.90;;;;;;5029150;28;20021;-68
2024/01/22 10:15:35;;;;;;;33.78;20.60;;;33.90;99.90;;;;;;5031599;28;20037;-67
2024/01/22 10:18:13;;;;;;;51.85;28.17;;;33.80;99.90;;;;;;5021118;28;20014;-66
2024/01/22 10:20:41;;;;;;;35.67;21.17;;;33.70;99.90;;;;;;5032027;28;20459;-67
2024/01/22 10:23:09;;;;;;;44.10;25.50;;;33.70;99.90;;;;;;5022498;28;20053;-67
2024/01/22 10:25:36;;;;;;;37.83;21.48;;;33.70;99.90;;;;;;5023195;28;20053;-66
2024/01/22 10:28:16;;;;;;;37.17;22.20;;;33.70;99.90;;;;;;5029957;28;20025;-67
2024/01/22 10:30:44;;;;;;;82.30;46.05;;;33.60;99.90;;;;;;5033565;28;20029;-67
2024/01/22 10:33:13;;;;;;;76.03;41.88;;;33.60;99.90;;;;;;5035942;28;20021;-67
2024/01/22 10:35:40;;;;;;;65.68;36.80;;;33.60;99.90;;;;;;5024993;28;20010;-67
2024/01/22 10:38:20;;;;;;;157.10;94.93;;;33.60;99.90;;;;;;5036106;28;20044;-66
2024/01/22 10:40:48;;;;;;;61.88;37.95;;;33.60;99.90;;;;;;5033686;28;20030;-66
2024/01/22 10:43:26;;;;;;;74.35;43.92;;;33.60;99.90;;;;;;5035896;28;20028;-69
2024/01/22 10:45:54;;;;;;;81.68;53.85;;;33.60;99.90;;;;;;5033192;28;20108;-68
2024/01/22 10:48:25;;;;;;;74.70;43.40;;;33.60;99.90;;;;;;5035635;28;20048;-68
2024/01/22 10:50:52;;;;;;;71.80;40.92;;;33.60;99.90;;;;;;5035934;28;20017;-68
2024/01/22 10:53:19;;;;;;;94.32;50.35;;;33.50;99.90;;;;;;5032777;28;20075;-68
2024/01/22 10:56:04;;;;;;;44.03;25.77;;;33.50;99.90;;;;;;5035638;28;20027;-68
2024/01/22 10:58:49;;;;;;;39.67;23.63;;;33.40;99.90;;;;;;5034132;28;20025;-68
2024/01/22 11:01:18;;;;;;;44.35;22.55;;;33.30;99.90;;;;;;5035076;28;20029;-68
2024/01/22 11:03:47;;;;;;;117.22;78.57;;;33.30;99.90;;;;;;5035511;28;20393;-68
2024/01/22 11:06:18;;;;;;;146.43;92.22;;;33.30;99.90;;;;;;5035636;28;20023;-69
2024/01/22 11:08:50;;;;;;;87.85;48.38;;;33.20;99.90;;;;;;5032660;28;20025;-68
2024/01/22 11:11:20;;;;;;;85.13;41.22;;;33.20;99.90;;;;;;5035557;28;20036;-66
2024/01/22 11:13:51;;;;;;;118.28;64.35;;;33.10;99.90;;;;;;5025391;28;20036;-67
2024/01/22 11:16:20;;;;;;;125.85;70.45;;;33.00;99.90;;;;;;5032815;28;20045;-67
2024/01/22 11:18:56;;;;;;;164.13;89.90;;;33.00;99.90;;;;;;5035660;28;20025;-67
2024/01/22 11:21:23;;;;;;;157.63;88.40;;;33.00;99.90;;;;;;5032688;28;20026;-67
2024/01/22 11:24:12;;;;;;;135.57;72.10;;;33.00;99.90;;;;;;5034456;28;20036;-67
2024/01/22 11:26:45;;;;;;;100.93;56.15;;;32.90;99.90;;;;;;5033438;28;20466;-65
2024/01/22 11:29:16;;;;;;;89.30;51.85;;;32.90;99.90;;;;;;5024113;28;20053;-66
2024/01/22 11:31:43;;;;;;;107.63;54.25;;;32.80;99.90;;;;;;5035616;28;20100;-66
2024/01/22 11:34:11;;;;;;;98.65;50.17;;;32.80;99.90;;;;;;5027498;28;20064;-66
2024/01/22 11:36:48;;;;;;;78.07;39.30;;;32.80;99.90;;;;;;5024728;28;20109;-66
2024/01/22 11:39:35;;;;;;;64.65;33.90;;;32.70;99.90;;;;;;5032419;28;20447;-66
2024/01/22 11:42:25;;;;;;;61.40;36.45;;;32.60;99.90;;;;;;5029866;28;20026;-67
2024/01/22 11:44:52;;;;;;;80.72;43.85;;;32.70;99.90;;;;;;5034477;28;20033;-67
2024/01/22 11:47:20;;;;;;;92.85;45.45;;;32.60;99.90;;;;;;5025715;28;20025;-66
2024/01/22 11:49:47;;;;;;;96.20;48.33;;;32.50;99.90;;;;;;5034708;28;20532;-67
2024/01/22 11:52:16;;;;;;;101.90;49.35;;;32.50;99.90;;;;;;5023887;28;20441;-67
2024/01/22 11:55:06;;;;;;;103.43;56.08;;;32.40;99.90;;;;;;5024996;28;20022;-66
2024/01/22 11:57:36;;;;;;;123.75;63.97;;;32.30;99.90;;;;;;5034056;28;20024;-66
2024/01/22 12:00:15;;;;;;;108.88;61.45;;;32.30;99.90;;;;;;5029868;28;20029;-66
2024/01/22 12:02:46;;;;;;;122.93;67.05;;;32.30;99.90;;;;;;5034468;28;20041;-66
2024/01/22 12:05:17;;;;;;;123.28;65.07;;;32.20;99.90;;;;;;5035038;28;20029;-67
2024/01/22 12:07:46;;;;;;;125.40;65.40;;;32.20;99.90;;;;;;5032937;28;20033;-66
2024/01/22 12:10:22;;;;;;;130.27;64.50;;;32.20;99.90;;;;;;5033724;28;20037;-67
2024/01/22 12:12:50;;;;;;;130.57;63.97;;;32.20;99.90;;;;;;5034347;28;20021;-67
2024/01/22 12:15:17;;;;;;;137.05;62.67;;;32.20;99.90;;;;;;5032687;28;20033;-67
2024/01/22 12:17:44;;;;;;;102.78;54.95;;;32.10;99.90;;;;;;5034549;28;20044;-67
2024/01/22 12:20:12;;;;;;;94.43;51.20;;;32.10;99.90;;;;;;5034343;28;20037;-67
2024/01/22 12:22:39;;;;;;;206.70;133.02;;;32.10;99.90;;;;;;5034358;28;20033;-65
2024/01/22 12:25:08;;;;;;;152.98;91.93;;;32.00;99.90;;;;;;5031877;28;20087;-67
2024/01/22 12:27:36;;;;;;;194.70;108.80;;;32.00;99.90;;;;;;5034501;28;20083;-68